Aeroporto :
LOGIN :

Iscrizione | Disclaimer

   EN    FR    IT 

 










Sommario :    VFR   VFR Marginale   IFR   IFR Intensivo   IFR Molto Intensivo
Visibilità : 
Base nubi : 
>= 8 km
>= 3000ft
5 / 8 km
1000 / 3000 ft
1500m / 5 km
500 / 1000 ft
800 / 1500m
200 / 500 ft
< 800m
< 200 ft
Simboli :   Temporali  Nebbia  Neve Forte  Precipitazioni Forti  Vento > 20 kt
SIGMETs :   Varie  Temporali  Ghiacco  Turbolenza  Onda orograficha  Ceneri Vulcaniche






- Altitudine del aeroporto : 142 ft
- Codice IATA : FLR


LIRQ - Firenze Amerigo Vespucci

ULTIMO METAR :
  • 170450Z 08003KT CAVOK 15/12 Q1016

METARs OBSOLETI :
  • 170420Z 08003KT CAVOK 14/11 Q1016
  • 170350Z 18004KT CAVOK 14/10 Q1016
  • 170320Z VRB01KT CAVOK 14/10 Q1016
  • 170250Z VRB01KT CAVOK 13/11 Q1016
  • 170220Z VRB01KT CAVOK 14/12 Q1016
  • 170150Z VRB01KT CAVOK 14/11 Q1016
  • 170120Z VRB02KT CAVOK 14/11 Q1016
  • 170050Z 07003KT CAVOK 15/11 Q1016
  • 170020Z VRB02KT CAVOK 15/11 Q1016
  • 162350Z 09003KT CAVOK 15/11 Q1016

TAF TAF LIRQ
Valido dal 17 a 00 ore il 18 a 00 ore UTC


162300Z 1700/1724 VRB05KT 9999 FEW050
BECMG 1710/1712 26010KT
BECMG 1718/1720 VRB05KT



MetMap, La meteo Aeronautica in un colpo d'occhio ! - Copyright ORBIFLY Dicembre 2007 - Disclaimer

ORBIFLY MET'MAP TEAM :

Programmazione e sviluppo : Alexandra Zaïnal
Concezione : Baudouin d'Aumeries
Supporto tecnico e logistico : Manuel Goepfert
Aiuto : Marc-Olivier Méhu
Aiuto per la traduzione : Arnaldo La Scala




FONTI E CREDITI :

   NOAA